Time;durP1;ratioP1;P1;durP2;ratioP2;P2;SDS_P1;SDS_P2;PMS_P1;PMS_P2;Temp;Humidity;BMP_temperature;BMP_pressure;BME280_temperature;BME280_humidity;BME280_pressure;Samples;Min_cycle;Max_cycle;Signal;HPM_P1;HPM_P2
2023/08/01 00:01:57;;;;;;;13.60;6.97;;;;;;;21.60;100.00;98162.59;5000068;28;20053;-91
2023/08/01 00:04:23;;;;;;;16.23;7.43;;;;;;;21.54;100.00;98149.56;4999102;28;20069;-92
2023/08/01 00:06:49;;;;;;;14.65;7.35;;;;;;;21.48;100.00;98134.69;4998219;28;20038;-94
2023/08/01 00:09:15;;;;;;;13.00;7.75;;;;;;;21.46;100.00;98136.66;4997676;28;20041;-93
2023/08/01 00:11:41;;;;;;;13.70;7.38;;;;;;;21.44;100.00;98135.94;5000791;28;20077;-93
2023/08/01 00:14:08;;;;;;;14.32;7.55;;;;;;;21.45;100.00;98123.28;5000672;28;20464;-92
2023/08/01 00:16:34;;;;;;;19.17;7.72;;;;;;;21.55;100.00;98129.63;4999590;28;20128;-92
2023/08/01 00:19:00;;;;;;;25.85;8.85;;;;;;;21.67;100.00;98146.72;4997254;28;20511;-92
2023/08/01 00:21:26;;;;;;;20.92;8.38;;;;;;;21.56;100.00;98130.47;4999035;28;20133;-92
2023/08/01 00:23:52;;;;;;;308.70;59.45;;;;;;;21.58;100.00;98139.34;4996995;28;20026;-93
2023/08/01 00:26:17;;;;;;;20.77;8.52;;;;;;;21.35;100.00;98136.66;4998990;28;20149;-91
2023/08/01 00:28:43;;;;;;;22.33;8.32;;;;;;;21.52;100.00;98138.00;4997159;28;20061;-93
2023/08/01 00:31:10;;;;;;;16.77;7.97;;;;;;;21.40;100.00;98138.97;4996191;28;20049;-92
2023/08/01 00:33:37;;;;;;;14.45;7.70;;;;;;;21.47;100.00;98135.69;5000243;28;20042;-92
2023/08/01 00:36:03;;;;;;;23.25;8.68;;;;;;;21.46;100.00;98133.09;5001097;28;20030;-92
2023/08/01 00:38:29;;;;;;;131.40;39.35;;;;;;;21.37;100.00;98123.00;4993891;28;20044;-93
2023/08/01 00:40:55;;;;;;;16.02;8.27;;;;;;;21.45;100.00;98137.66;4999695;28;20525;-92
2023/08/01 00:43:21;;;;;;;15.93;8.57;;;;;;;21.37;100.00;98126.56;5000258;28;20057;-92
2023/08/01 00:45:47;;;;;;;16.60;8.38;;;;;;;21.33;100.00;98125.94;4990510;28;20045;-93
2023/08/01 00:48:15;;;;;;;15.27;8.00;;;;;;;21.42;100.00;98128.94;4997305;28;20064;-93
2023/08/01 00:50:40;;;;;;;28.98;8.85;;;;;;;21.32;100.00;98118.84;4998143;28;20400;-91
2023/08/01 00:53:06;;;;;;;17.02;8.20;;;;;;;21.33;100.00;98133.22;4998651;28;20034;-91
2023/08/01 00:55:34;;;;;;;20.38;8.88;;;;;;;21.17;100.00;98106.56;4998811;28;20121;-91
2023/08/01 00:58:00;;;;;;;548.13;121.07;;;;;;;21.27;100.00;98115.63;5000351;28;20041;-92
2023/08/01 01:00:26;;;;;;;16.98;8.20;;;;;;;21.23;100.00;98125.00;4993663;28;20038;-90
2023/08/01 01:02:52;;;;;;;21.38;8.25;;;;;;;20.92;100.00;98102.25;4999908;28;20058;-92
2023/08/01 01:05:22;;;;;;;1999.90;999.90;;;;;;;20.87;100.00;98097.22;4991291;28;20088;-92
2023/08/01 01:07:49;;;;;;;1999.90;999.90;;;;;;;20.91;100.00;98111.38;4997719;28;20049;-92
2023/08/01 01:10:15;;;;;;;1999.90;999.90;;;;;;;20.85;100.00;98099.19;4997585;28;20030;-92
2023/08/01 01:12:41;;;;;;;1999.90;999.90;;;;;;;20.90;100.00;98101.53;4997535;28;20109;-92
2023/08/01 01:15:08;;;;;;;1999.90;999.90;;;;;;;20.76;100.00;98096.38;4997582;28;20045;-92
2023/08/01 01:17:34;;;;;;;1999.90;999.90;;;;;;;20.61;100.00;98082.25;4996833;28;20497;-92
2023/08/01 01:20:00;;;;;;;1999.90;999.90;;;;;;;20.70;100.00;98079.66;5030975;28;20133;-91
2023/08/01 01:22:29;;;;;;;1999.90;999.90;;;;;;;20.65;100.00;98081.03;4999029;28;20133;-93
2023/08/01 01:24:55;;;;;;;1999.90;999.90;;;;;;;20.52;100.00;98091.91;4994059;28;20061;-91
2023/08/01 01:27:23;;;;;;;1999.90;999.90;;;;;;;20.63;100.00;98097.34;4999182;28;20095;-92
2023/08/01 01:29:49;;;;;;;1999.90;999.90;;;;;;;20.66;100.00;98077.31;4998867;28;20038;-91
2023/08/01 01:32:16;;;;;;;1999.90;999.90;;;;;;;20.69;100.00;98086.06;4993076;28;20499;-92
2023/08/01 01:34:41;;;;;;;1999.90;999.90;;;;;;;20.69;100.00;98086.06;4994301;28;20037;-92
2023/08/01 01:37:07;;;;;;;1999.90;999.90;;;;;;;20.79;100.00;98091.56;4996920;28;20613;-90
2023/08/01 01:39:34;;;;;;;1999.90;999.90;;;;;;;20.60;100.00;98081.38;4999210;28;20096;-91
2023/08/01 01:42:00;;;;;;;1999.90;999.90;;;;;;;20.63;100.00;98075.72;5015817;28;20037;-91
2023/08/01 01:44:26;;;;;;;1999.90;999.90;;;;;;;20.49;100.00;98084.03;5015275;28;20048;-92
2023/08/01 01:46:52;;;;;;;1999.90;999.90;;;;;;;20.33;100.00;98073.56;5015005;28;20132;-91
2023/08/01 01:49:17;;;;;;;1999.90;999.90;;;;;;;20.40;100.00;98072.09;5014753;28;20061;-93
2023/08/01 01:51:43;;;;;;;1999.90;999.90;;;;;;;20.36;100.00;98069.75;5013941;28;20042;-92
2023/08/01 01:54:09;;;;;;;1999.90;999.90;;;;;;;20.30;100.00;98060.31;5014220;28;20040;-91
2023/08/01 01:56:36;;;;;;;1999.90;999.90;;;;;;;20.45;100.00;98074.44;5016706;28;20403;-91
2023/08/01 01:59:02;;;;;;;1999.90;999.90;;;;;;;20.38;100.00;98057.84;5009979;28;20034;-91
2023/08/01 02:01:28;;;;;;;1999.90;999.90;;;;;;;20.45;100.00;98077.13;5014877;28;20581;-91
2023/08/01 02:03:53;;;;;;;1999.90;999.90;;;;;;;20.44;100.00;98065.47;5017722;28;20038;-91
2023/08/01 02:06:19;;;;;;;1999.90;999.90;;;;;;;20.44;100.00;98054.69;5014796;28;20045;-91
2023/08/01 02:08:45;;;;;;;1999.90;999.90;;;;;;;20.33;100.00;98059.22;5017444;28;20044;-92
2023/08/01 02:11:11;;;;;;;1999.90;999.90;;;;;;;20.24;100.00;98050.00;5015918;28;20037;-91
2023/08/01 02:13:38;;;;;;;1999.90;999.90;;;;;;;20.27;100.00;98055.16;5018197;28;20104;-91
2023/08/01 02:16:04;;;;;;;1999.90;999.90;;;;;;;20.11;100.00;98044.69;5032134;28;20491;-91
2023/08/01 02:18:30;;;;;;;1999.90;999.90;;;;;;;20.18;100.00;98048.63;5014314;28;20048;-91
2023/08/01 02:20:56;;;;;;;1999.90;999.90;;;;;;;20.10;100.00;98062.72;5017323;28;20061;-92
2023/08/01 02:23:22;;;;;;;1999.90;999.90;;;;;;;20.12;100.00;98054.50;5016638;28;20495;-91
2023/08/01 02:25:47;;;;;;;1999.90;999.90;;;;;;;20.23;100.00;98068.03;5013692;28;20042;-91
2023/08/01 02:28:13;;;;;;;1999.90;999.90;;;;;;;20.20;100.00;98048.50;5014068;28;20051;-92
2023/08/01 02:30:41;;;;;;;1999.90;999.90;;;;;;;20.23;100.00;98050.97;5013934;28;20047;-91
2023/08/01 02:33:07;;;;;;;1999.90;999.90;;;;;;;20.06;100.00;98050.44;5014898;28;20049;-91
2023/08/01 02:35:33;;;;;;;1999.90;999.90;;;;;;;20.01;100.00;98046.38;5016652;28;20133;-92
2023/08/01 02:37:59;;;;;;;1999.90;999.90;;;;;;;19.98;100.00;98052.03;5015449;28;20133;-91
2023/08/01 02:40:26;;;;;;;1999.90;999.90;;;;;;;19.92;100.00;98041.69;5013791;28;20053;-91
2023/08/01 02:42:52;;;;;;;611.28;354.05;;;;;;;19.77;100.00;98041.88;5015380;28;20030;-92
2023/08/01 02:45:18;;;;;;;1999.90;999.90;;;;;;;19.75;100.00;98048.38;5014138;28;20037;-91
2023/08/01 02:47:45;;;;;;;1999.90;999.90;;;;;;;19.77;100.00;98031.09;5016164;28;20038;-91
2023/08/01 02:50:11;;;;;;;1999.90;999.90;;;;;;;19.67;100.00;98039.00;5016091;28;20067;-91
2023/08/01 02:52:37;;;;;;;1999.90;999.90;;;;;;;19.69;100.00;98061.34;5016511;28;20041;-92
2023/08/01 02:55:03;;;;;;;1999.90;999.90;;;;;;;19.60;100.00;98055.75;5013430;28;20030;-91
2023/08/01 02:57:29;;;;;;;1999.90;999.90;;;;;;;19.55;100.00;98057.94;5016285;28;20083;-91
2023/08/01 02:59:54;;;;;;;1999.90;999.90;;;;;;;19.58;100.00;98066.69;5014882;28;20038;-90
2023/08/01 03:02:20;;;;;;;1999.90;999.90;;;;;;;19.60;100.00;98066.53;5011630;28;20037;-91
2023/08/01 03:04:48;;;;;;;1999.90;999.90;;;;;;;19.67;100.00;98076.75;5015962;28;20034;-91
2023/08/01 03:07:13;;;;;;;1999.90;999.90;;;;;;;19.47;100.00;98074.69;5016498;28;20128;-93
2023/08/01 03:09:39;;;;;;;1999.90;999.90;;;;;;;19.39;100.00;98042.91;5016601;28;20068;-93
2023/08/01 03:12:06;;;;;;;1999.90;999.90;;;;;;;19.61;100.00;98066.44;5016226;28;20037;-93
2023/08/01 03:14:32;;;;;;;1999.90;999.90;;;;;;;19.58;100.00;98063.97;5015986;28;20793;-94
2023/08/01 03:16:57;;;;;;;1999.90;999.90;;;;;;;19.64;100.00;98070.72;5013547;28;20038;-93
2023/08/01 03:19:24;;;;;;;1999.90;999.90;;;;;;;19.64;100.00;98059.94;5017449;28;20513;-93
2023/08/01 03:21:51;;;;;;;1999.90;999.90;;;;;;;19.70;100.00;98060.38;5015846;28;20049;-94
2023/08/01 03:24:17;;;;;;;1999.90;999.90;;;;;;;19.69;100.00;98079.31;5015768;28;20061;-94
2023/08/01 03:26:43;;;;;;;1999.90;999.90;;;;;;;19.61;100.00;98085.31;5017150;28;20065;-93
2023/08/01 03:29:08;;;;;;;1999.90;999.90;;;;;;;19.62;100.00;98084.31;5032990;28;20041;-94
2023/08/01 03:31:34;;;;;;;1999.90;999.90;;;;;;;19.52;100.00;98071.63;5016405;28;20041;-91
2023/08/01 03:34:00;;;;;;;1999.90;999.90;;;;;;;19.56;100.00;98075.84;5016858;28;20053;-93
2023/08/01 03:36:26;;;;;;;1999.90;999.90;;;;;;;19.58;100.00;98081.97;5025320;28;20052;-92
2023/08/01 03:38:53;;;;;;;1999.90;999.90;;;;;;;19.53;100.00;98068.00;5016088;28;20037;-92
2023/08/01 03:41:19;;;;;;;1999.90;999.90;;;;;;;19.59;100.00;98083.72;5012291;28;20499;-92
2023/08/01 03:43:45;;;;;;;1999.90;999.90;;;;;;;19.54;100.00;98075.09;5016029;28;20045;-91
2023/08/01 03:46:10;;;;;;;1999.90;999.90;;;;;;;19.49;100.00;98073.59;5013580;28;20042;-92
2023/08/01 03:48:36;;;;;;;1999.90;999.90;;;;;;;19.49;100.00;98081.69;5016810;28;20056;-92
2023/08/01 03:51:03;;;;;;;1999.90;999.90;;;;;;;19.36;100.00;98071.94;5011535;28;20038;-92
2023/08/01 03:53:29;;;;;;;1999.90;999.90;;;;;;;19.19;100.00;98068.66;5016121;28;20133;-92
2023/08/01 03:55:57;;;;;;;1999.90;999.90;;;;;;;19.16;100.00;98057.25;5014509;28;20041;-92
2023/08/01 03:58:22;;;;;;;1999.90;999.90;;;;;;;19.38;100.00;98086.16;5010125;28;20044;-91
2023/08/01 04:00:49;;;;;;;1999.90;999.90;;;;;;;19.36;100.00;98072.78;5007018;28;20041;-93
2023/08/01 04:03:14;;;;;;;1999.90;999.90;;;;;;;19.25;100.00;98065.50;5013015;28;20109;-93
2023/08/01 04:05:40;;;;;;;1999.90;999.90;;;;;;;19.37;100.00;98079.06;5016786;28;20133;-93
2023/08/01 04:08:06;;;;;;;1999.90;999.90;;;;;;;19.38;100.00;98086.16;5029085;28;20065;-93
2023/08/01 04:10:32;;;;;;;1999.90;999.90;;;;;;;19.32;100.00;98078.53;5016921;28;20095;-92
2023/08/01 04:12:59;;;;;;;1999.90;999.90;;;;;;;19.21;100.00;98057.75;5012436;28;20041;-93
2023/08/01 04:15:25;;;;;;;1999.90;999.90;;;;;;;19.25;100.00;98068.19;5010765;28;20133;-92
2023/08/01 04:17:51;;;;;;;82.57;78.43;;;;;;;19.29;100.00;98077.78;5013194;28;20131;-92
2023/08/01 04:20:17;;;;;;;65.53;61.65;;;;;;;19.34;100.00;98082.81;5006919;28;20080;-92
2023/08/01 04:22:43;;;;;;;36.25;33.63;;;;;;;19.28;100.00;98077.91;5017614;28;20055;-92
2023/08/01 04:25:08;;;;;;;23.52;21.63;;;;;;;19.30;100.00;98081.34;5013424;28;20063;-91
2023/08/01 04:27:34;;;;;;;20.52;18.77;;;;;;;19.40;100.00;98085.06;5020013;28;20096;-92
2023/08/01 04:30:02;;;;;;;19.85;18.05;;;;;;;19.31;100.00;98077.66;5020501;28;20088;-91
2023/08/01 04:32:28;;;;;;;21.63;19.35;;;;;;;19.38;100.00;98086.16;5020285;28;20398;-92
2023/08/01 04:34:53;;;;;;;21.73;19.58;;;;;;;19.43;100.00;98083.97;5017541;28;20129;-92
2023/08/01 04:37:22;;;;;;;21.42;19.60;;;;;;;19.44;100.00;98075.78;5014051;28;20058;-92
2023/08/01 04:39:48;;;;;;;21.60;19.83;;;;;;;19.55;100.00;98087.59;5020401;28;20049;-92
2023/08/01 04:42:14;;;;;;;20.23;18.45;;;;;;;19.50;100.00;98077.16;5019017;28;20037;-92
2023/08/01 04:44:40;;;;;;;23.17;20.83;;;;;;;19.64;100.00;98109.34;5036455;28;20128;-92
2023/08/01 04:47:07;;;;;;;21.30;19.38;;;;;;;19.62;100.00;98086.16;5017738;28;20091;-93
2023/08/01 04:49:33;;;;;;;21.52;19.83;;;;;;;19.67;100.00;98102.88;5015835;28;20045;-92
2023/08/01 04:52:00;;;;;;;23.40;21.23;;;;;;;19.69;100.00;98100.91;5015818;28;20041;-92
2023/08/01 04:54:25;;;;;;;23.73;21.75;;;;;;;19.72;100.00;98100.72;5016684;28;20038;-91
2023/08/01 04:56:51;;;;;;;23.80;21.73;;;;;;;19.74;100.00;98097.91;5015150;28;20107;-91
2023/08/01 04:59:17;;;;;;;25.17;22.90;;;;;;;19.80;100.00;98114.50;5016714;28;20514;-93
2023/08/01 05:01:43;;;;;;;20.27;18.45;;;;;;;19.81;100.00;98109.97;5016803;28;20417;-91
2023/08/01 05:04:10;;;;;;;17.75;16.10;;;;;;;19.87;100.00;98118.44;5017514;28;20044;-91
2023/08/01 05:06:36;;;;;;;17.25;15.07;;;;;;;19.84;100.00;98098.94;5019935;28;20073;-92
2023/08/01 05:09:02;;;;;;;15.80;14.23;;;;;;;19.96;100.00;98110.66;5018869;28;20053;-92
2023/08/01 05:11:28;;;;;;;14.82;13.07;;;;;;;20.04;100.00;98109.09;5016747;28;20124;-93
2023/08/01 05:13:54;;;;;;;15.20;13.60;;;;;;;20.58;100.00;98112.19;5017916;28;20061;-93
2023/08/01 05:16:20;;;;;;;15.77;12.43;;;;;;;21.20;100.00;98125.22;5018806;28;20564;-92
2023/08/01 05:18:45;;;;;;;13.02;11.60;;;;;;;21.68;100.00;98105.13;5010663;28;20145;-92
2023/08/01 05:21:13;;;;;;;14.05;11.30;;;;;;;22.03;100.00;98104.00;5013661;28;20038;-91
2023/08/01 05:23:38;;;;;;;18.08;12.35;;;;;;;22.31;100.00;98108.81;5018051;28;20044;-93
2023/08/01 05:26:04;;;;;;;15.18;12.43;;;;;;;22.54;100.00;98103.28;5018060;28;20487;-91
2023/08/01 05:28:30;;;;;;;13.68;12.30;;;;;;;22.73;100.00;98092.56;5019028;28;20137;-92
2023/08/01 05:30:56;;;;;;;14.65;12.82;;;;;;;22.98;100.00;98115.63;5018749;28;20041;-93
2023/08/01 05:33:22;;;;;;;13.82;12.45;;;;;;;23.12;100.00;98100.91;5017996;28;20037;-92
2023/08/01 05:35:48;;;;;;;16.13;14.60;;;;;;;23.26;100.00;98098.78;5022353;28;20060;-93
2023/08/01 05:38:15;;;;;;;15.18;13.57;;;;;;;23.27;100.00;98073.38;5021500;28;20403;-95
2023/08/01 05:40:41;;;;;;;17.88;13.35;;;;;;;23.54;100.00;98092.56;5020447;28;20056;-94
2023/08/01 05:43:08;;;;;;;20.50;13.73;;;;;;;23.59;100.00;98089.44;5018565;28;20137;-94
2023/08/01 05:45:34;;;;;;;15.85;14.25;;;;;;;23.76;100.00;98090.63;5020557;28;20037;-94
2023/08/01 05:48:00;;;;;;;19.63;14.02;;;;;;;23.86;100.00;98083.38;5021072;28;20068;-94
2023/08/01 05:50:26;;;;;;;19.50;14.45;;;;;;;23.91;100.00;98074.78;5023026;28;20132;-95
2023/08/01 05:52:51;;;;;;;19.25;15.32;;;;;;;23.88;100.00;98089.50;5020317;28;20049;-94
2023/08/01 05:55:19;;;;;;;18.17;15.55;;;;;;;23.80;100.00;98089.38;5020519;28;20490;-94
2023/08/01 05:57:45;;;;;;;18.15;16.15;;;;;;;23.88;100.00;98084.09;5020310;28;20517;-95
2023/08/01 06:00:12;;;;;;;22.70;15.95;;;;;;;23.81;100.00;98080.19;5020500;28;20037;-93
2023/08/01 06:02:38;;;;;;;25.15;17.27;;;;;;;24.03;100.00;98099.94;5021259;28;20053;-95
2023/08/01 06:05:05;;;;;;;46.97;20.30;;;;;;;23.93;100.00;98102.66;5020123;28;20041;-95
2023/08/01 06:07:31;;;;;;;42.45;18.73;;;;;;;24.18;99.82;98109.38;5021033;28;20053;-94
2023/08/01 06:09:57;;;;;;;40.17;21.15;;;;;;;24.15;98.16;98105.09;5020662;28;20057;-93
2023/08/01 06:12:24;;;;;;;30.58;18.55;;;;;;;23.94;100.00;98109.78;5011062;28;20042;-95
2023/08/01 06:14:50;;;;;;;29.65;22.83;;;;;;;23.88;99.82;98086.81;5012452;28;20045;-95
2023/08/01 06:17:16;;;;;;;24.58;19.80;;;;;;;24.09;98.41;98102.94;5019535;28;20072;-95
2023/08/01 06:19:42;;;;;;;27.05;21.80;;;;;;;24.08;99.21;98089.53;5019331;28;20045;-94
2023/08/01 06:22:08;;;;;;;23.70;21.20;;;;;;;24.12;99.28;98080.94;5016204;28;20037;-95
2023/08/01 06:24:34;;;;;;;22.88;19.70;;;;;;;23.92;97.79;98079.22;5019018;28;20398;-94
2023/08/01 06:27:00;;;;;;;28.20;20.40;;;;;;;24.19;96.21;98092.94;5019831;28;20065;-95
2023/08/01 06:29:27;;;;;;;30.08;21.15;;;;;;;24.38;95.46;98093.94;5017738;28;20068;-93
2023/08/01 06:31:53;;;;;;;23.75;20.85;;;;;;;24.58;95.23;98092.06;5016897;28;20128;-95
2023/08/01 06:34:19;;;;;;;28.73;21.20;;;;;;;24.69;94.51;98072.84;5019810;28;20077;-96
2023/08/01 06:36:45;;;;;;;23.05;20.60;;;;;;;24.83;93.45;98068.81;5023579;28;20041;-96
2023/08/01 06:39:11;;;;;;;28.27;22.50;;;;;;;25.04;91.99;98076.72;5024407;28;20077;-96
2023/08/01 06:41:37;;;;;;;22.45;20.05;;;;;;;25.17;91.66;98071.78;5009660;28;20060;-92
2023/08/01 06:44:03;;;;;;;24.88;21.60;;;;;;;25.27;90.49;98062.78;5000848;28;20050;-94
2023/08/01 06:46:30;;;;;;;28.10;21.95;;;;;;;25.51;89.90;98078.53;5004097;28;20046;-96
2023/08/01 06:48:56;;;;;;;27.23;23.20;;;;;;;24.63;91.87;98046.25;5002251;28;20046;-94
2023/08/01 06:51:22;;;;;;;25.92;21.45;;;;;;;24.88;92.83;98042.00;5001427;28;20045;-94
2023/08/01 06:53:48;;;;;;;29.35;23.08;;;;;;;25.20;90.74;98062.53;5000926;28;20026;-96
2023/08/01 06:56:14;;;;;;;35.67;21.45;;;;;;;24.83;91.31;98047.06;5003163;28;20117;-95
2023/08/01 06:58:40;;;;;;;26.67;21.80;;;;;;;25.20;91.99;98055.22;5005641;28;20042;-95
2023/08/01 07:01:06;;;;;;;26.63;22.08;;;;;;;25.47;89.69;98060.78;5001170;28;20192;-95
2023/08/01 07:03:33;;;;;;;28.90;23.38;;;;;;;25.50;88.54;98044.97;5004392;28;20109;-95
2023/08/01 07:05:59;;;;;;;40.67;21.92;;;;;;;25.72;88.53;98040.97;5005197;28;20053;-96
2023/08/01 07:08:25;;;;;;;34.53;22.15;;;;;;;25.51;87.16;98029.53;5003356;28;20041;-96
2023/08/01 07:10:51;;;;;;;37.70;20.25;;;;;;;25.81;88.04;98042.75;5001102;28;20048;-96
2023/08/01 07:13:19;;;;;;;45.58;27.33;;;;;;;25.55;87.41;98055.44;5001122;28;20045;-95
2023/08/01 07:15:45;;;;;;;43.80;20.50;;;;;;;25.80;86.74;98046.47;5000198;28;20136;-94
2023/08/01 07:18:11;;;;;;;39.40;21.45;;;;;;;25.86;87.14;98041.44;5000488;28;20085;-95
2023/08/01 07:20:38;;;;;;;36.38;20.45;;;;;;;26.12;85.50;98045.09;5000949;28;20050;-95
2023/08/01 07:23:04;;;;;;;34.28;19.20;;;;;;;26.35;84.89;98034.56;5000405;28;20050;-95
2023/08/01 07:25:30;;;;;;;29.60;18.80;;;;;;;26.70;81.95;98051.00;5000226;28;20081;-94
2023/08/01 07:27:56;;;;;;;46.72;20.45;;;;;;;26.57;82.34;98062.34;5000920;28;20042;-95
2023/08/01 07:30:22;;;;;;;27.75;18.58;;;;;;;26.25;82.50;98046.56;5000367;28;20050;-95
2023/08/01 07:32:48;;;;;;;24.80;20.55;;;;;;;26.23;84.20;98024.91;5000785;28;20068;-95
2023/08/01 07:35:14;;;;;;;23.95;18.58;;;;;;;26.31;80.95;98032.31;5002425;28;20038;-96
2023/08/01 07:37:41;;;;;;;19.27;17.25;;;;;;;26.63;79.87;98009.84;5018741;28;20136;-95
2023/08/01 07:40:09;;;;;;;18.05;16.27;;;;;;;26.66;78.61;98017.72;4999385;28;20050;-96
2023/08/01 07:42:35;;;;;;;20.10;17.63;;;;;;;27.00;78.31;98028.66;5008108;28;20046;-95
2023/08/01 07:45:00;;;;;;;20.70;17.98;;;;;;;26.90;77.15;98003.34;5020813;28;20041;-95
2023/08/01 07:47:26;;;;;;;19.92;17.92;;;;;;;27.25;78.50;98026.88;5021466;28;20049;-95
2023/08/01 07:49:53;;;;;;;20.35;18.20;;;;;;;27.39;75.03;98022.69;5021591;28;20044;-93
2023/08/01 07:52:18;;;;;;;21.00;16.92;;;;;;;27.33;76.82;98017.03;5022236;28;20056;-95
2023/08/01 07:54:46;;;;;;;29.15;17.67;;;;;;;26.76;78.17;98039.41;5021197;28;20041;-95
2023/08/01 07:57:12;;;;;;;19.85;17.75;;;;;;;26.62;80.05;98039.00;5023664;28;20048;-95
2023/08/01 07:59:38;;;;;;;16.67;14.63;;;;;;;26.00;82.16;98019.09;5023044;28;20045;-96
2023/08/01 08:02:04;;;;;;;18.00;15.10;;;;;;;26.48;82.26;98017.78;5023640;28;20156;-95
2023/08/01 08:04:30;;;;;;;20.90;16.10;;;;;;;26.77;80.66;98011.16;5024047;28;20046;-95
2023/08/01 08:06:59;;;;;;;20.88;15.07;;;;;;;27.08;80.60;98019.63;5024250;28;20140;-94
2023/08/01 08:09:25;;;;;;;17.67;14.02;;;;;;;26.68;82.26;98018.44;5022601;28;20042;-95
2023/08/01 08:11:53;;;;;;;16.15;12.95;;;;;;;27.23;81.19;98030.81;5022735;28;20049;-94
2023/08/01 08:14:21;;;;;;;18.52;13.48;;;;;;;27.54;80.48;98022.88;5023081;28;20049;-95
2023/08/01 08:16:47;;;;;;;19.20;13.60;;;;;;;27.55;79.50;98021.84;5022401;28;20045;-96
2023/08/01 08:19:13;;;;;;;18.83;13.25;;;;;;;27.63;81.02;98046.47;5019327;28;20490;-95
2023/08/01 08:21:39;;;;;;;17.52;13.10;;;;;;;27.53;81.45;98044.91;5022982;28;20147;-95
2023/08/01 08:24:05;;;;;;;24.15;13.60;;;;;;;27.12;82.19;98020.16;5023298;28;20061;-95
2023/08/01 08:26:31;;;;;;;21.48;12.40;;;;;;;27.09;83.96;98035.00;5018799;28;20044;-95
2023/08/01 08:28:59;;;;;;;17.98;12.30;;;;;;;27.57;82.51;98038.09;5023536;28;20049;-96
2023/08/01 08:31:24;;;;;;;15.88;12.48;;;;;;;27.95;81.00;98022.94;5023364;28;20037;-94
2023/08/01 08:33:50;;;;;;;17.25;11.38;;;;;;;28.40;79.76;98010.63;5021363;28;20044;-94
2023/08/01 08:36:16;;;;;;;17.27;11.98;;;;;;;28.59;78.09;98017.63;5021930;28;20407;-95
2023/08/01 08:38:42;;;;;;;18.52;11.65;;;;;;;28.50;79.19;98005.00;5021062;28;20050;-94
2023/08/01 08:41:10;;;;;;;16.58;11.75;;;;;;;28.80;77.42;98011.59;5021952;28;20085;-94
2023/08/01 08:43:36;;;;;;;13.77;11.40;;;;;;;28.81;77.08;97996.03;5023520;28;20415;-96
2023/08/01 08:46:05;;;;;;;17.42;14.38;;;;;;;28.71;77.44;98001.69;5023558;28;20290;-95
2023/08/01 08:48:32;;;;;;;17.52;13.18;;;;;;;29.35;76.59;98009.84;5023508;28;20057;-96
2023/08/01 08:51:00;;;;;;;20.58;13.68;;;;;;;29.39;76.96;97996.66;5023288;28;20041;-95
2023/08/01 08:53:26;;;;;;;19.97;15.00;;;;;;;29.39;74.89;97999.41;5026167;28;20037;-96
2023/08/01 08:55:52;;;;;;;17.65;14.10;;;;;;;29.18;75.49;97978.94;5026413;28;20046;-95
2023/08/01 08:58:18;;;;;;;19.10;13.45;;;;;;;28.83;76.90;97975.66;5014466;28;20589;-95
2023/08/01 09:00:45;;;;;;;19.27;13.73;;;;;;;28.56;77.98;97960.56;5007275;28;20184;-94
2023/08/01 09:03:12;;;;;;;22.42;13.55;;;;;;;29.29;76.03;97967.59;5006821;28;20074;-96
2023/08/01 09:05:45;;;;;;;17.00;14.30;;;;;;;29.83;73.27;97952.19;5006315;28;20450;-96
2023/08/01 09:08:17;;;;;;;21.08;14.65;;;;;;;30.20;71.63;97986.97;5005988;28;20135;-95
2023/08/01 09:10:43;;;;;;;19.17;14.57;;;;;;;30.37;69.95;97957.53;5003932;28;20056;-96
2023/08/01 09:13:09;;;;;;;17.90;15.90;;;;;;;30.34;69.31;97946.06;5009543;28;20124;-96
2023/08/01 09:15:36;;;;;;;18.60;16.00;;;;;;;30.08;70.28;97944.59;5022562;28;20080;-95
2023/08/01 09:18:07;;;;;;;17.30;14.18;;;;;;;30.04;72.03;97966.06;5022231;28;20069;-96
2023/08/01 09:20:42;;;;;;;19.17;15.10;;;;;;;29.94;72.11;97954.47;5023304;28;20037;-95
2023/08/01 09:23:09;;;;;;;18.52;14.50;;;;;;;29.89;73.93;97963.25;5021956;28;20042;-94
2023/08/01 09:25:35;;;;;;;20.00;14.77;;;;;;;30.27;71.57;97940.47;5021026;28;20049;-96
2023/08/01 09:28:01;;;;;;;18.02;14.48;;;;;;;30.46;70.86;97934.44;5021209;28;20042;-95
2023/08/01 09:30:28;;;;;;;21.65;14.05;;;;;;;30.83;69.91;97940.03;5021910;28;20131;-96
2023/08/01 09:32:54;;;;;;;17.88;14.73;;;;;;;30.98;68.02;97943.63;5023420;28;20380;-96
2023/08/01 09:35:21;;;;;;;43.78;15.60;;;;;;;31.30;57.02;97939.59;5021867;28;20487;-96
2023/08/01 09:37:49;;;;;;;17.38;14.85;;;;;;;30.66;57.79;97936.63;5024571;28;20042;-96
2023/08/01 09:40:15;;;;;;;21.60;15.82;;;;;;;31.00;57.82;97940.72;5023398;28;20549;-96
2023/08/01 09:42:42;;;;;;;19.00;15.85;;;;;;;31.30;56.88;97933.25;5022257;28;20045;-96
2023/08/01 09:45:18;;;;;;;16.65;14.82;;;;;;;31.28;56.79;97930.69;5025339;28;20045;-96
2023/08/01 09:47:45;;;;;;;20.67;15.55;;;;;;;31.70;54.77;97941.91;5023499;28;20587;-95
2023/08/01 09:50:19;;;;;;;17.90;15.13;;;;;;;30.93;56.04;97923.31;5024707;28;20087;-95
2023/08/01 09:52:52;;;;;;;23.17;14.95;;;;;;;31.64;54.63;97917.97;5023256;28;20592;-96
2023/08/01 09:55:25;;;;;;;15.80;14.27;;;;;;;32.01;53.38;97941.63;5022065;28;20046;-95
2023/08/01 09:57:56;;;;;;;21.17;14.70;;;;;;;31.60;54.05;97913.91;5024309;28;20052;-94
2023/08/01 10:00:22;;;;;;;20.20;14.43;;;;;;;31.31;54.75;97924.78;5020606;28;20048;-94
2023/08/01 10:02:50;;;;;;;15.85;13.30;;;;;;;31.48;53.27;97924.59;5009428;28;20037;-94
2023/08/01 10:05:18;;;;;;;15.38;13.65;;;;;;;30.90;55.41;97911.66;5020452;28;20152;-96
2023/08/01 10:07:44;;;;;;;;;;;;;;;31.08;55.65;97927.72;5013504;28;20041;-96
2023/08/01 10:10:11;;;;;;;21.70;16.30;;;;;;;31.23;54.22;97904.84;5020222;28;19921;-93
2023/08/01 10:12:43;;;;;;;17.33;14.32;;;;;;;31.47;53.70;97898.16;5020217;28;20445;-95
2023/08/01 10:15:09;;;;;;;20.23;15.15;;;;;;;32.10;51.59;97890.91;5018986;28;20050;-94
2023/08/01 10:17:36;;;;;;;14.25;12.90;;;;;;;31.80;49.96;97909.47;5017433;28;20151;-94
2023/08/01 10:20:03;;;;;;;14.57;13.18;;;;;;;31.45;49.60;97909.34;5015038;28;20038;-94
2023/08/01 10:22:29;;;;;;;16.23;13.17;;;;;;;31.71;48.85;97903.25;5015954;28;20136;-93
2023/08/01 10:24:55;;;;;;;13.98;12.55;;;;;;;31.99;46.94;97910.72;5014926;28;20071;-94
2023/08/01 10:27:21;;;;;;;14.40;11.93;;;;;;;31.79;48.05;97893.16;5012328;28;20038;-94
2023/08/01 10:29:58;;;;;;;13.15;11.82;;;;;;;30.28;50.29;97879.13;5013787;28;20057;-94
2023/08/01 10:32:29;;;;;;;13.55;12.18;;;;;;;30.53;51.10;97903.53;5002935;28;20081;-94
2023/08/01 10:34:55;;;;;;;13.40;12.10;;;;;;;30.48;49.70;97896.72;5017639;28;20434;-92
2023/08/01 10:37:21;;;;;;;14.55;13.20;;;;;;;30.53;49.55;97889.81;5018316;28;20060;-93
2023/08/01 10:39:56;;;;;;;12.63;11.15;;;;;;;30.25;49.14;97879.47;5014128;28;20096;-94
2023/08/01 10:42:22;;;;;;;15.35;12.77;;;;;;;30.33;48.91;97879.41;4999653;28;20048;-94
2023/08/01 10:44:48;;;;;;;13.88;12.43;;;;;;;30.26;48.69;97875.69;4999181;28;20140;-94
2023/08/01 10:47:26;;;;;;;13.95;12.18;;;;;;;30.36;48.70;97864.44;4998716;28;20041;-94
2023/08/01 10:49:52;;;;;;;14.13;12.55;;;;;;;30.80;49.20;97858.91;4994494;28;20050;-93
2023/08/01 10:52:20;;;;;;;13.75;11.77;;;;;;;31.39;47.93;97881.78;5000188;28;20129;-93
2023/08/01 10:54:46;;;;;;;12.83;11.50;;;;;;;31.58;47.40;97869.31;5001021;28;20042;-94
2023/08/01 10:57:17;;;;;;;12.23;11.02;;;;;;;31.84;45.19;97871.44;4997378;28;20054;-94
2023/08/01 10:59:44;;;;;;;12.93;11.50;;;;;;;31.59;45.82;97884.75;4993007;28;20104;-93
2023/08/01 11:02:09;;;;;;;13.60;11.40;;;;;;;31.08;46.59;97866.47;4999240;28;20074;-92
2023/08/01 11:04:37;;;;;;;12.95;10.75;;;;;;;31.41;46.47;97852.22;4994210;28;20062;-94